Terminal Aerodrome Forecast
Issued by NWS Pittsburgh, PA

Home | Current Version | Previous Version | Text Only | Print | Product List | Glossary On
Versions: 1 2 3 4 5 6 7 8 9 10 11 12 13 14 15 16 17 18 19 20 21 22 23 24 25 26 27 28 29 30 31 32 33 34 35 36 37 38 39 40 41 42 43 44 45 46 47 48 49 50
189
FTUS41 KPBZ 201147 CCA
TAFPIT
TAF COR
KPIT 201147Z 2012/2118 33017G33KT 1SM -SN BLSN OVC008
      TEMPO 2012/2014 4SM -SN BLSN OVC015
     FM201400 32018G30KT P6SM VCSH OVC015
     FM202000 32015G29KT P6SM BKN035
     FM210700 32015G22KT P6SM BKN025=

USA.gov is the U.S. government's official web portal to all federal, state and local government web resources and services.